sensor_id;sensor_type;location;lat;lon;timestamp;P1;durP1;ratioP1;P2;durP2;ratioP2
59770;SDS011;45649;53.014;6.600;2023-05-14T00:01:41;12.73;;;10.80;;
59770;SDS011;45649;53.014;6.600;2023-05-14T00:04:08;12.33;;;10.87;;
59770;SDS011;45649;53.014;6.600;2023-05-14T00:06:34;14.40;;;11.00;;
59770;SDS011;45649;53.014;6.600;2023-05-14T00:09:00;13.47;;;11.63;;
59770;SDS011;45649;53.014;6.600;2023-05-14T00:11:26;15.43;;;10.73;;
59770;SDS011;45649;53.014;6.600;2023-05-14T00:13:52;15.03;;;11.57;;
59770;SDS011;45649;53.014;6.600;2023-05-14T00:16:18;11.87;;;10.37;;
59770;SDS011;45649;53.014;6.600;2023-05-14T00:18:44;15.50;;;10.80;;
59770;SDS011;45649;53.014;6.600;2023-05-14T00:21:10;13.23;;;10.87;;
59770;SDS011;45649;53.014;6.600;2023-05-14T00:23:37;13.87;;;11.37;;
59770;SDS011;45649;53.014;6.600;2023-05-14T00:26:03;12.37;;;11.07;;
59770;SDS011;45649;53.014;6.600;2023-05-14T00:28:29;12.50;;;10.90;;
59770;SDS011;45649;53.014;6.600;2023-05-14T00:30:55;13.07;;;11.57;;
59770;SDS011;45649;53.014;6.600;2023-05-14T00:33:21;13.67;;;10.47;;
59770;SDS011;45649;53.014;6.600;2023-05-14T00:35:47;12.80;;;11.10;;
59770;SDS011;45649;53.014;6.600;2023-05-14T00:38:14;14.07;;;10.43;;
59770;SDS011;45649;53.014;6.600;2023-05-14T00:40:45;15.10;;;11.47;;
59770;SDS011;45649;53.014;6.600;2023-05-14T00:43:18;14.17;;;11.20;;
59770;SDS011;45649;53.014;6.600;2023-05-14T00:45:45;15.80;;;11.83;;
59770;SDS011;45649;53.014;6.600;2023-05-14T00:48:12;14.50;;;11.00;;
59770;SDS011;45649;53.014;6.600;2023-05-14T00:50:38;12.63;;;11.10;;
59770;SDS011;45649;53.014;6.600;2023-05-14T00:53:04;13.90;;;11.17;;
59770;SDS011;45649;53.014;6.600;2023-05-14T00:55:37;13.33;;;10.57;;
59770;SDS011;45649;53.014;6.600;2023-05-14T00:58:06;12.87;;;10.53;;
59770;SDS011;45649;53.014;6.600;2023-05-14T01:00:32;12.47;;;10.80;;
59770;SDS011;45649;53.014;6.600;2023-05-14T01:02:58;14.00;;;10.83;;
59770;SDS011;45649;53.014;6.600;2023-05-14T01:05:26;16.83;;;10.57;;
59770;SDS011;45649;53.014;6.600;2023-05-14T01:07:58;12.37;;;10.40;;
59770;SDS011;45649;53.014;6.600;2023-05-14T01:10:28;14.77;;;10.60;;
59770;SDS011;45649;53.014;6.600;2023-05-14T01:15:30;10.33;;;8.37;;
59770;SDS011;45649;53.014;6.600;2023-05-14T01:17:58;12.17;;;10.20;;
59770;SDS011;45649;53.014;6.600;2023-05-14T01:20:25;15.07;;;9.80;;
59770;SDS011;45649;53.014;6.600;2023-05-14T01:22:51;11.70;;;9.23;;
59770;SDS011;45649;53.014;6.600;2023-05-14T01:25:17;13.73;;;9.93;;
59770;SDS011;45649;53.014;6.600;2023-05-14T01:30:25;11.53;;;9.63;;
59770;SDS011;45649;53.014;6.600;2023-05-14T01:32:54;12.00;;;9.53;;
59770;SDS011;45649;53.014;6.600;2023-05-14T01:35:26;10.17;;;9.07;;
59770;SDS011;45649;53.014;6.600;2023-05-14T01:37:53;12.53;;;9.40;;
59770;SDS011;45649;53.014;6.600;2023-05-14T01:40:20;10.43;;;8.90;;
59770;SDS011;45649;53.014;6.600;2023-05-14T01:42:46;14.00;;;9.07;;
59770;SDS011;45649;53.014;6.600;2023-05-14T01:45:13;11.57;;;8.80;;
59770;SDS011;45649;53.014;6.600;2023-05-14T01:47:39;11.03;;;9.07;;
59770;SDS011;45649;53.014;6.600;2023-05-14T01:50:05;9.73;;;8.50;;
59770;SDS011;45649;53.014;6.600;2023-05-14T01:52:32;14.23;;;9.03;;
59770;SDS011;45649;53.014;6.600;2023-05-14T01:54:58;11.60;;;9.37;;
59770;SDS011;45649;53.014;6.600;2023-05-14T01:57:24;10.10;;;8.77;;
59770;SDS011;45649;53.014;6.600;2023-05-14T01:59:50;12.20;;;9.47;;
59770;SDS011;45649;53.014;6.600;2023-05-14T02:04:52;10.33;;;9.30;;
59770;SDS011;45649;53.014;6.600;2023-05-14T02:07:19;12.37;;;9.17;;
59770;SDS011;45649;53.014;6.600;2023-05-14T02:09:45;12.70;;;9.37;;
59770;SDS011;45649;53.014;6.600;2023-05-14T02:12:11;13.67;;;9.20;;
59770;SDS011;45649;53.014;6.600;2023-05-14T02:14:39;11.50;;;9.33;;
59770;SDS011;45649;53.014;6.600;2023-05-14T02:17:05;10.47;;;9.17;;
59770;SDS011;45649;53.014;6.600;2023-05-14T02:19:31;11.27;;;9.40;;
59770;SDS011;45649;53.014;6.600;2023-05-14T02:21:58;11.10;;;9.33;;
59770;SDS011;45649;53.014;6.600;2023-05-14T02:24:25;11.03;;;8.30;;
59770;SDS011;45649;53.014;6.600;2023-05-14T02:26:51;12.63;;;9.67;;
59770;SDS011;45649;53.014;6.600;2023-05-14T02:29:17;11.10;;;9.27;;
59770;SDS011;45649;53.014;6.600;2023-05-14T02:31:43;12.90;;;9.40;;
59770;SDS011;45649;53.014;6.600;2023-05-14T02:34:09;10.43;;;8.23;;
59770;SDS011;45649;53.014;6.600;2023-05-14T02:36:36;12.07;;;8.27;;
59770;SDS011;45649;53.014;6.600;2023-05-14T02:39:02;8.17;;;7.33;;
59770;SDS011;45649;53.014;6.600;2023-05-14T02:41:29;14.80;;;9.03;;
59770;SDS011;45649;53.014;6.600;2023-05-14T02:43:55;8.93;;;8.03;;
59770;SDS011;45649;53.014;6.600;2023-05-14T02:46:21;12.37;;;8.60;;
59770;SDS011;45649;53.014;6.600;2023-05-14T02:48:47;13.87;;;9.20;;
59770;SDS011;45649;53.014;6.600;2023-05-14T02:51:13;9.63;;;8.10;;
59770;SDS011;45649;53.014;6.600;2023-05-14T02:53:40;11.23;;;8.47;;
59770;SDS011;45649;53.014;6.600;2023-05-14T02:56:06;12.93;;;8.07;;
59770;SDS011;45649;53.014;6.600;2023-05-14T02:58:32;10.33;;;8.17;;
59770;SDS011;45649;53.014;6.600;2023-05-14T03:00:58;9.10;;;7.63;;
59770;SDS011;45649;53.014;6.600;2023-05-14T03:03:24;10.90;;;8.40;;
59770;SDS011;45649;53.014;6.600;2023-05-14T03:05:51;12.47;;;8.17;;
59770;SDS011;45649;53.014;6.600;2023-05-14T03:08:17;11.07;;;8.03;;
59770;SDS011;45649;53.014;6.600;2023-05-14T03:10:43;12.13;;;8.87;;
59770;SDS011;45649;53.014;6.600;2023-05-14T03:13:09;9.43;;;8.40;;
59770;SDS011;45649;53.014;6.600;2023-05-14T03:15:35;12.57;;;8.27;;
59770;SDS011;45649;53.014;6.600;2023-05-14T03:18:01;11.23;;;8.27;;
59770;SDS011;45649;53.014;6.600;2023-05-14T03:20:27;11.73;;;9.20;;
59770;SDS011;45649;53.014;6.600;2023-05-14T03:22:53;14.87;;;8.53;;
59770;SDS011;45649;53.014;6.600;2023-05-14T03:25:20;12.17;;;8.73;;
59770;SDS011;45649;53.014;6.600;2023-05-14T03:27:46;11.17;;;8.87;;
59770;SDS011;45649;53.014;6.600;2023-05-14T03:30:12;9.60;;;8.70;;
59770;SDS011;45649;53.014;6.600;2023-05-14T03:32:38;10.87;;;8.57;;
59770;SDS011;45649;53.014;6.600;2023-05-14T03:35:05;12.87;;;9.10;;
59770;SDS011;45649;53.014;6.600;2023-05-14T03:37:32;10.40;;;9.03;;
59770;SDS011;45649;53.014;6.600;2023-05-14T03:39:58;14.57;;;10.00;;
59770;SDS011;45649;53.014;6.600;2023-05-14T03:42:24;11.23;;;8.97;;
59770;SDS011;45649;53.014;6.600;2023-05-14T03:44:51;12.33;;;9.57;;
59770;SDS011;45649;53.014;6.600;2023-05-14T03:47:17;12.53;;;9.10;;
59770;SDS011;45649;53.014;6.600;2023-05-14T03:49:43;11.23;;;9.50;;
59770;SDS011;45649;53.014;6.600;2023-05-14T03:52:09;15.67;;;9.73;;
59770;SDS011;45649;53.014;6.600;2023-05-14T03:54:35;9.73;;;7.90;;
59770;SDS011;45649;53.014;6.600;2023-05-14T03:57:02;13.90;;;9.20;;
59770;SDS011;45649;53.014;6.600;2023-05-14T03:59:28;14.03;;;9.70;;
59770;SDS011;45649;53.014;6.600;2023-05-14T04:01:54;12.30;;;9.47;;
59770;SDS011;45649;53.014;6.600;2023-05-14T04:04:20;12.90;;;9.30;;
59770;SDS011;45649;53.014;6.600;2023-05-14T04:06:46;15.17;;;8.83;;
59770;SDS011;45649;53.014;6.600;2023-05-14T04:09:12;13.13;;;9.70;;
59770;SDS011;45649;53.014;6.600;2023-05-14T04:11:39;10.40;;;8.97;;
59770;SDS011;45649;53.014;6.600;2023-05-14T04:14:05;13.63;;;9.03;;
59770;SDS011;45649;53.014;6.600;2023-05-14T04:16:31;13.60;;;10.10;;
59770;SDS011;45649;53.014;6.600;2023-05-14T04:18:57;14.60;;;10.10;;
59770;SDS011;45649;53.014;6.600;2023-05-14T04:21:23;12.97;;;9.67;;
59770;SDS011;45649;53.014;6.600;2023-05-14T04:23:49;10.33;;;9.23;;
59770;SDS011;45649;53.014;6.600;2023-05-14T04:26:15;10.97;;;8.93;;
59770;SDS011;45649;53.014;6.600;2023-05-14T04:28:42;11.63;;;9.70;;
59770;SDS011;45649;53.014;6.600;2023-05-14T04:31:08;13.73;;;9.70;;
59770;SDS011;45649;53.014;6.600;2023-05-14T04:33:34;10.33;;;9.20;;
59770;SDS011;45649;53.014;6.600;2023-05-14T04:36:00;11.70;;;9.30;;
59770;SDS011;45649;53.014;6.600;2023-05-14T04:38:26;11.20;;;9.80;;
59770;SDS011;45649;53.014;6.600;2023-05-14T04:40:52;14.93;;;9.57;;
59770;SDS011;45649;53.014;6.600;2023-05-14T04:43:18;18.10;;;9.50;;
59770;SDS011;45649;53.014;6.600;2023-05-14T04:45:44;11.80;;;9.80;;
59770;SDS011;45649;53.014;6.600;2023-05-14T04:48:11;15.27;;;10.10;;
59770;SDS011;45649;53.014;6.600;2023-05-14T04:50:37;13.90;;;9.77;;
59770;SDS011;45649;53.014;6.600;2023-05-14T04:53:03;13.80;;;9.77;;
59770;SDS011;45649;53.014;6.600;2023-05-14T04:55:29;13.70;;;10.33;;
59770;SDS011;45649;53.014;6.600;2023-05-14T04:57:55;13.63;;;10.00;;
59770;SDS011;45649;53.014;6.600;2023-05-14T05:00:21;17.47;;;10.20;;
59770;SDS011;45649;53.014;6.600;2023-05-14T05:02:47;14.20;;;9.53;;
59770;SDS011;45649;53.014;6.600;2023-05-14T05:05:13;16.97;;;9.97;;
59770;SDS011;45649;53.014;6.600;2023-05-14T05:07:39;14.00;;;9.63;;
59770;SDS011;45649;53.014;6.600;2023-05-14T05:10:06;15.37;;;10.53;;
59770;SDS011;45649;53.014;6.600;2023-05-14T05:12:32;13.40;;;10.13;;
59770;SDS011;45649;53.014;6.600;2023-05-14T05:14:59;15.17;;;10.30;;
59770;SDS011;45649;53.014;6.600;2023-05-14T05:17:25;18.10;;;11.50;;
59770;SDS011;45649;53.014;6.600;2023-05-14T05:19:51;18.83;;;11.37;;
59770;SDS011;45649;53.014;6.600;2023-05-14T05:22:17;15.70;;;11.40;;
59770;SDS011;45649;53.014;6.600;2023-05-14T05:24:44;13.57;;;11.63;;
59770;SDS011;45649;53.014;6.600;2023-05-14T05:27:10;17.13;;;12.07;;
59770;SDS011;45649;53.014;6.600;2023-05-14T05:29:36;18.53;;;12.20;;
59770;SDS011;45649;53.014;6.600;2023-05-14T05:32:02;18.00;;;12.37;;
59770;SDS011;45649;53.014;6.600;2023-05-14T05:34:28;18.17;;;13.75;;
59770;SDS011;45649;53.014;6.600;2023-05-14T05:36:55;17.60;;;12.93;;
59770;SDS011;45649;53.014;6.600;2023-05-14T05:39:21;17.00;;;12.30;;
59770;SDS011;45649;53.014;6.600;2023-05-14T05:41:47;17.70;;;12.40;;
59770;SDS011;45649;53.014;6.600;2023-05-14T05:44:13;15.80;;;11.83;;
59770;SDS011;45649;53.014;6.600;2023-05-14T05:46:39;19.43;;;12.40;;
59770;SDS011;45649;53.014;6.600;2023-05-14T05:49:06;20.43;;;12.20;;
59770;SDS011;45649;53.014;6.600;2023-05-14T05:51:32;21.77;;;12.17;;
59770;SDS011;45649;53.014;6.600;2023-05-14T05:53:58;18.27;;;12.17;;
59770;SDS011;45649;53.014;6.600;2023-05-14T05:56:24;14.53;;;11.37;;
59770;SDS011;45649;53.014;6.600;2023-05-14T05:58:50;21.57;;;11.90;;
59770;SDS011;45649;53.014;6.600;2023-05-14T06:01:16;16.40;;;10.77;;
59770;SDS011;45649;53.014;6.600;2023-05-14T06:03:42;16.87;;;11.50;;
59770;SDS011;45649;53.014;6.600;2023-05-14T06:06:08;18.30;;;10.83;;
59770;SDS011;45649;53.014;6.600;2023-05-14T06:08:34;17.20;;;11.30;;
59770;SDS011;45649;53.014;6.600;2023-05-14T06:11:00;19.23;;;12.13;;
59770;SDS011;45649;53.014;6.600;2023-05-14T06:13:26;18.97;;;11.33;;
59770;SDS011;45649;53.014;6.600;2023-05-14T06:15:52;18.20;;;10.83;;
59770;SDS011;45649;53.014;6.600;2023-05-14T06:18:19;15.10;;;10.43;;
59770;SDS011;45649;53.014;6.600;2023-05-14T06:20:45;18.77;;;9.67;;
59770;SDS011;45649;53.014;6.600;2023-05-14T06:23:11;18.10;;;10.53;;
59770;SDS011;45649;53.014;6.600;2023-05-14T06:25:37;18.17;;;9.53;;
59770;SDS011;45649;53.014;6.600;2023-05-14T06:28:03;16.57;;;9.93;;
59770;SDS011;45649;53.014;6.600;2023-05-14T06:30:30;16.60;;;9.53;;
59770;SDS011;45649;53.014;6.600;2023-05-14T06:32:56;19.77;;;9.67;;
59770;SDS011;45649;53.014;6.600;2023-05-14T06:35:22;18.73;;;9.43;;
59770;SDS011;45649;53.014;6.600;2023-05-14T06:37:48;16.27;;;8.87;;
59770;SDS011;45649;53.014;6.600;2023-05-14T06:40:14;17.57;;;8.50;;
59770;SDS011;45649;53.014;6.600;2023-05-14T06:42:40;17.00;;;8.60;;
59770;SDS011;45649;53.014;6.600;2023-05-14T06:45:06;16.63;;;8.40;;
59770;SDS011;45649;53.014;6.600;2023-05-14T06:47:33;16.50;;;8.13;;
59770;SDS011;45649;53.014;6.600;2023-05-14T06:49:59;18.27;;;8.30;;
59770;SDS011;45649;53.014;6.600;2023-05-14T06:52:25;18.10;;;9.10;;
59770;SDS011;45649;53.014;6.600;2023-05-14T06:54:52;16.03;;;8.33;;
59770;SDS011;45649;53.014;6.600;2023-05-14T06:57:18;16.00;;;7.80;;
59770;SDS011;45649;53.014;6.600;2023-05-14T06:59:44;16.20;;;8.07;;
59770;SDS011;45649;53.014;6.600;2023-05-14T07:02:10;16.30;;;7.67;;
59770;SDS011;45649;53.014;6.600;2023-05-14T07:04:36;15.47;;;7.63;;
59770;SDS011;45649;53.014;6.600;2023-05-14T07:07:03;17.40;;;7.90;;
59770;SDS011;45649;53.014;6.600;2023-05-14T07:09:29;16.43;;;8.47;;
59770;SDS011;45649;53.014;6.600;2023-05-14T07:11:55;12.53;;;8.00;;
59770;SDS011;45649;53.014;6.600;2023-05-14T07:14:22;16.10;;;7.97;;
59770;SDS011;45649;53.014;6.600;2023-05-14T07:16:48;14.87;;;7.73;;
59770;SDS011;45649;53.014;6.600;2023-05-14T07:19:14;12.60;;;7.53;;
59770;SDS011;45649;53.014;6.600;2023-05-14T07:21:40;13.97;;;7.30;;
59770;SDS011;45649;53.014;6.600;2023-05-14T07:24:06;14.90;;;7.60;;
59770;SDS011;45649;53.014;6.600;2023-05-14T07:26:32;14.17;;;8.33;;
59770;SDS011;45649;53.014;6.600;2023-05-14T07:28:58;12.27;;;7.13;;
59770;SDS011;45649;53.014;6.600;2023-05-14T07:31:24;11.50;;;7.57;;
59770;SDS011;45649;53.014;6.600;2023-05-14T07:33:51;16.30;;;7.90;;
59770;SDS011;45649;53.014;6.600;2023-05-14T07:36:17;14.20;;;8.27;;
59770;SDS011;45649;53.014;6.600;2023-05-14T07:38:43;13.10;;;7.40;;
59770;SDS011;45649;53.014;6.600;2023-05-14T07:41:09;13.30;;;7.70;;
59770;SDS011;45649;53.014;6.600;2023-05-14T07:43:36;16.27;;;7.70;;
59770;SDS011;45649;53.014;6.600;2023-05-14T07:46:03;12.40;;;7.23;;
59770;SDS011;45649;53.014;6.600;2023-05-14T07:48:29;11.23;;;7.27;;
59770;SDS011;45649;53.014;6.600;2023-05-14T07:50:55;11.83;;;7.23;;
59770;SDS011;45649;53.014;6.600;2023-05-14T07:53:21;10.30;;;7.10;;
59770;SDS011;45649;53.014;6.600;2023-05-14T07:55:48;12.77;;;7.50;;
59770;SDS011;45649;53.014;6.600;2023-05-14T07:58:15;11.27;;;6.70;;
59770;SDS011;45649;53.014;6.600;2023-05-14T08:00:41;12.93;;;6.73;;
59770;SDS011;45649;53.014;6.600;2023-05-14T08:03:07;12.03;;;7.00;;
59770;SDS011;45649;53.014;6.600;2023-05-14T08:05:33;11.73;;;6.93;;
59770;SDS011;45649;53.014;6.600;2023-05-14T08:08:00;9.50;;;6.77;;
59770;SDS011;45649;53.014;6.600;2023-05-14T08:10:26;9.73;;;6.53;;
59770;SDS011;45649;53.014;6.600;2023-05-14T08:12:52;10.80;;;6.80;;
59770;SDS011;45649;53.014;6.600;2023-05-14T08:15:18;12.15;;;7.03;;
59770;SDS011;45649;53.014;6.600;2023-05-14T08:17:45;10.83;;;6.67;;
59770;SDS011;45649;53.014;6.600;2023-05-14T08:20:11;12.27;;;6.97;;
59770;SDS011;45649;53.014;6.600;2023-05-14T08:22:37;11.87;;;7.00;;
59770;SDS011;45649;53.014;6.600;2023-05-14T08:25:03;13.43;;;6.90;;
59770;SDS011;45649;53.014;6.600;2023-05-14T08:27:30;11.67;;;7.07;;
59770;SDS011;45649;53.014;6.600;2023-05-14T08:29:56;10.10;;;7.00;;
59770;SDS011;45649;53.014;6.600;2023-05-14T08:32:22;12.37;;;6.43;;
59770;SDS011;45649;53.014;6.600;2023-05-14T08:34:49;10.43;;;7.03;;
59770;SDS011;45649;53.014;6.600;2023-05-14T08:37:15;9.73;;;7.17;;
59770;SDS011;45649;53.014;6.600;2023-05-14T08:39:41;12.80;;;6.90;;
59770;SDS011;45649;53.014;6.600;2023-05-14T08:42:07;13.53;;;7.50;;
59770;SDS011;45649;53.014;6.600;2023-05-14T08:47:12;12.50;;;6.43;;
59770;SDS011;45649;53.014;6.600;2023-05-14T08:49:41;11.73;;;6.70;;
59770;SDS011;45649;53.014;6.600;2023-05-14T08:52:10;11.03;;;6.63;;
59770;SDS011;45649;53.014;6.600;2023-05-14T08:54:36;12.27;;;6.93;;
59770;SDS011;45649;53.014;6.600;2023-05-14T08:57:03;10.70;;;7.10;;
59770;SDS011;45649;53.014;6.600;2023-05-14T08:59:29;9.23;;;6.17;;
59770;SDS011;45649;53.014;6.600;2023-05-14T09:01:55;10.70;;;7.03;;
59770;SDS011;45649;53.014;6.600;2023-05-14T09:04:23;9.63;;;6.50;;
59770;SDS011;45649;53.014;6.600;2023-05-14T09:06:50;11.50;;;6.90;;
59770;SDS011;45649;53.014;6.600;2023-05-14T09:09:17;11.80;;;6.20;;
59770;SDS011;45649;53.014;6.600;2023-05-14T09:11:47;10.40;;;6.37;;
59770;SDS011;45649;53.014;6.600;2023-05-14T09:14:13;11.50;;;6.57;;
59770;SDS011;45649;53.014;6.600;2023-05-14T09:16:40;12.73;;;7.07;;
59770;SDS011;45649;53.014;6.600;2023-05-14T09:19:07;10.43;;;7.00;;
59770;SDS011;45649;53.014;6.600;2023-05-14T09:21:33;11.47;;;6.70;;
59770;SDS011;45649;53.014;6.600;2023-05-14T09:23:59;10.37;;;6.17;;
59770;SDS011;45649;53.014;6.600;2023-05-14T09:26:26;7.97;;;5.53;;
59770;SDS011;45649;53.014;6.600;2023-05-14T09:28:53;12.70;;;6.73;;
59770;SDS011;45649;53.014;6.600;2023-05-14T09:31:26;12.17;;;6.80;;
59770;SDS011;45649;53.014;6.600;2023-05-14T09:33:52;13.50;;;7.00;;
59770;SDS011;45649;53.014;6.600;2023-05-14T09:36:18;10.90;;;6.50;;
59770;SDS011;45649;53.014;6.600;2023-05-14T09:38:44;13.53;;;6.27;;
59770;SDS011;45649;53.014;6.600;2023-05-14T09:41:11;13.37;;;6.70;;
59770;SDS011;45649;53.014;6.600;2023-05-14T09:43:37;11.50;;;6.63;;
59770;SDS011;45649;53.014;6.600;2023-05-14T09:46:03;11.63;;;5.53;;
59770;SDS011;45649;53.014;6.600;2023-05-14T09:48:29;9.10;;;6.20;;
59770;SDS011;45649;53.014;6.600;2023-05-14T09:50:55;7.27;;;5.70;;
59770;SDS011;45649;53.014;6.600;2023-05-14T09:53:21;10.10;;;6.67;;
59770;SDS011;45649;53.014;6.600;2023-05-14T09:55:47;6.90;;;5.87;;
59770;SDS011;45649;53.014;6.600;2023-05-14T09:58:13;8.83;;;5.70;;
59770;SDS011;45649;53.014;6.600;2023-05-14T10:00:41;9.57;;;5.83;;
59770;SDS011;45649;53.014;6.600;2023-05-14T10:03:09;9.03;;;5.60;;
59770;SDS011;45649;53.014;6.600;2023-05-14T10:05:38;8.97;;;7.13;;
59770;SDS011;45649;53.014;6.600;2023-05-14T10:08:09;9.53;;;6.93;;
59770;SDS011;45649;53.014;6.600;2023-05-14T10:10:36;10.10;;;6.93;;
59770;SDS011;45649;53.014;6.600;2023-05-14T10:13:03;10.87;;;6.67;;
59770;SDS011;45649;53.014;6.600;2023-05-14T10:15:32;9.53;;;7.97;;
59770;SDS011;45649;53.014;6.600;2023-05-14T10:17:59;12.53;;;8.00;;
59770;SDS011;45649;53.014;6.600;2023-05-14T10:20:28;9.37;;;7.73;;
59770;SDS011;45649;53.014;6.600;2023-05-14T10:22:56;12.50;;;8.27;;
59770;SDS011;45649;53.014;6.600;2023-05-14T10:25:22;10.10;;;7.23;;
59770;SDS011;45649;53.014;6.600;2023-05-14T10:27:49;11.30;;;7.43;;
59770;SDS011;45649;53.014;6.600;2023-05-14T10:30:15;11.47;;;7.33;;
59770;SDS011;45649;53.014;6.600;2023-05-14T10:32:41;9.07;;;6.57;;
59770;SDS011;45649;53.014;6.600;2023-05-14T10:35:14;9.20;;;6.83;;
59770;SDS011;45649;53.014;6.600;2023-05-14T10:37:41;8.83;;;6.73;;
59770;SDS011;45649;53.014;6.600;2023-05-14T10:40:10;11.87;;;6.80;;
59770;SDS011;45649;53.014;6.600;2023-05-14T10:42:37;9.60;;;5.20;;
59770;SDS011;45649;53.014;6.600;2023-05-14T10:45:14;9.13;;;5.93;;
59770;SDS011;45649;53.014;6.600;2023-05-14T10:47:46;8.13;;;5.37;;
59770;SDS011;45649;53.014;6.600;2023-05-14T10:50:13;7.07;;;5.63;;
59770;SDS011;45649;53.014;6.600;2023-05-14T10:52:43;6.83;;;5.30;;
59770;SDS011;45649;53.014;6.600;2023-05-14T10:55:13;11.23;;;5.23;;
59770;SDS011;45649;53.014;6.600;2023-05-14T10:57:41;6.03;;;5.20;;
59770;SDS011;45649;53.014;6.600;2023-05-14T11:00:07;7.50;;;5.20;;
59770;SDS011;45649;53.014;6.600;2023-05-14T11:02:38;6.57;;;4.90;;
59770;SDS011;45649;53.014;6.600;2023-05-14T11:05:05;5.80;;;4.37;;
59770;SDS011;45649;53.014;6.600;2023-05-14T11:07:42;4.30;;;3.90;;
59770;SDS011;45649;53.014;6.600;2023-05-14T11:10:09;4.83;;;4.20;;
59770;SDS011;45649;53.014;6.600;2023-05-14T11:12:36;5.13;;;4.13;;
59770;SDS011;45649;53.014;6.600;2023-05-14T11:15:03;4.53;;;4.10;;
59770;SDS011;45649;53.014;6.600;2023-05-14T11:17:30;6.57;;;3.77;;
59770;SDS011;45649;53.014;6.600;2023-05-14T11:19:57;4.57;;;4.17;;
59770;SDS011;45649;53.014;6.600;2023-05-14T11:22:23;8.60;;;6.23;;
59770;SDS011;45649;53.014;6.600;2023-05-14T11:24:50;8.53;;;6.20;;
59770;SDS011;45649;53.014;6.600;2023-05-14T11:27:16;7.90;;;4.57;;
59770;SDS011;45649;53.014;6.600;2023-05-14T11:29:43;8.17;;;5.60;;
59770;SDS011;45649;53.014;6.600;2023-05-14T11:32:13;7.33;;;5.77;;
59770;SDS011;45649;53.014;6.600;2023-05-14T11:34:40;7.67;;;6.53;;
59770;SDS011;45649;53.014;6.600;2023-05-14T11:37:06;7.07;;;5.93;;
59770;SDS011;45649;53.014;6.600;2023-05-14T11:39:33;5.80;;;5.20;;
59770;SDS011;45649;53.014;6.600;2023-05-14T11:42:02;8.50;;;5.27;;
59770;SDS011;45649;53.014;6.600;2023-05-14T11:44:28;7.57;;;5.00;;
59770;SDS011;45649;53.014;6.600;2023-05-14T11:46:57;5.63;;;5.07;;
59770;SDS011;45649;53.014;6.600;2023-05-14T11:49:25;5.80;;;4.60;;
59770;SDS011;45649;53.014;6.600;2023-05-14T11:51:59;8.50;;;4.60;;
59770;SDS011;45649;53.014;6.600;2023-05-14T11:54:26;5.40;;;4.20;;
59770;SDS011;45649;53.014;6.600;2023-05-14T11:56:53;4.87;;;4.20;;
59770;SDS011;45649;53.014;6.600;2023-05-14T11:59:19;6.13;;;4.73;;
59770;SDS011;45649;53.014;6.600;2023-05-14T12:01:45;4.63;;;4.23;;
59770;SDS011;45649;53.014;6.600;2023-05-14T12:04:14;5.20;;;4.03;;
59770;SDS011;45649;53.014;6.600;2023-05-14T12:06:42;6.10;;;4.20;;
59770;SDS011;45649;53.014;6.600;2023-05-14T12:09:11;7.63;;;4.37;;
59770;SDS011;45649;53.014;6.600;2023-05-14T12:11:40;3.73;;;3.37;;
59770;SDS011;45649;53.014;6.600;2023-05-14T12:14:10;6.23;;;3.43;;
59770;SDS011;45649;53.014;6.600;2023-05-14T12:16:38;10.43;;;3.77;;
59770;SDS011;45649;53.014;6.600;2023-05-14T12:19:06;4.70;;;3.90;;
59770;SDS011;45649;53.014;6.600;2023-05-14T12:21:33;3.90;;;3.60;;
59770;SDS011;45649;53.014;6.600;2023-05-14T12:23:59;5.70;;;3.50;;
59770;SDS011;45649;53.014;6.600;2023-05-14T12:26:25;3.93;;;3.20;;
59770;SDS011;45649;53.014;6.600;2023-05-14T12:28:56;4.30;;;3.27;;
59770;SDS011;45649;53.014;6.600;2023-05-14T12:31:31;5.87;;;3.50;;
59770;SDS011;45649;53.014;6.600;2023-05-14T12:33:58;6.73;;;3.10;;
59770;SDS011;45649;53.014;6.600;2023-05-14T12:36:24;3.40;;;3.10;;
59770;SDS011;45649;53.014;6.600;2023-05-14T12:38:56;6.07;;;3.70;;
59770;SDS011;45649;53.014;6.600;2023-05-14T12:41:22;3.40;;;3.10;;
59770;SDS011;45649;53.014;6.600;2023-05-14T12:43:49;3.83;;;3.53;;
59770;SDS011;45649;53.014;6.600;2023-05-14T12:46:15;7.20;;;3.30;;
59770;SDS011;45649;53.014;6.600;2023-05-14T12:48:41;6.30;;;3.40;;
59770;SDS011;45649;53.014;6.600;2023-05-14T12:51:07;3.60;;;3.30;;
59770;SDS011;45649;53.014;6.600;2023-05-14T12:53:33;3.60;;;3.30;;
59770;SDS011;45649;53.014;6.600;2023-05-14T12:56:00;5.50;;;3.70;;
59770;SDS011;45649;53.014;6.600;2023-05-14T12:58:26;4.50;;;3.70;;
59770;SDS011;45649;53.014;6.600;2023-05-14T13:00:52;4.33;;;3.37;;
59770;SDS011;45649;53.014;6.600;2023-05-14T13:03:18;4.13;;;3.80;;
59770;SDS011;45649;53.014;6.600;2023-05-14T13:05:45;4.97;;;3.70;;
59770;SDS011;45649;53.014;6.600;2023-05-14T13:08:11;5.87;;;3.40;;
59770;SDS011;45649;53.014;6.600;2023-05-14T13:10:41;4.00;;;3.57;;
59770;SDS011;45649;53.014;6.600;2023-05-14T13:13:08;4.23;;;2.93;;
59770;SDS011;45649;53.014;6.600;2023-05-14T13:15:34;6.03;;;3.87;;
59770;SDS011;45649;53.014;6.600;2023-05-14T13:18:01;4.60;;;4.20;;
59770;SDS011;45649;53.014;6.600;2023-05-14T13:20:27;5.07;;;3.90;;
59770;SDS011;45649;53.014;6.600;2023-05-14T13:22:55;3.47;;;3.20;;
59770;SDS011;45649;53.014;6.600;2023-05-14T13:25:21;6.20;;;3.60;;
59770;SDS011;45649;53.014;6.600;2023-05-14T13:27:47;4.93;;;3.53;;
59770;SDS011;45649;53.014;6.600;2023-05-14T13:30:17;4.17;;;3.77;;
59770;SDS011;45649;53.014;6.600;2023-05-14T13:32:43;6.03;;;3.53;;
59770;SDS011;45649;53.014;6.600;2023-05-14T13:35:09;4.33;;;3.60;;
59770;SDS011;45649;53.014;6.600;2023-05-14T13:37:35;4.93;;;3.77;;
59770;SDS011;45649;53.014;6.600;2023-05-14T13:40:02;5.03;;;3.70;;
59770;SDS011;45649;53.014;6.600;2023-05-14T13:42:28;3.53;;;3.23;;
59770;SDS011;45649;53.014;6.600;2023-05-14T13:44:56;5.83;;;3.77;;
59770;SDS011;45649;53.014;6.600;2023-05-14T13:47:22;5.93;;;3.53;;
59770;SDS011;45649;53.014;6.600;2023-05-14T13:49:48;4.03;;;3.67;;
59770;SDS011;45649;53.014;6.600;2023-05-14T13:52:14;4.30;;;3.70;;
59770;SDS011;45649;53.014;6.600;2023-05-14T13:54:40;3.83;;;3.57;;
59770;SDS011;45649;53.014;6.600;2023-05-14T13:57:06;6.33;;;3.10;;
59770;SDS011;45649;53.014;6.600;2023-05-14T13:59:32;4.73;;;3.10;;
59770;SDS011;45649;53.014;6.600;2023-05-14T14:01:58;5.23;;;3.60;;
59770;SDS011;45649;53.014;6.600;2023-05-14T14:04:24;3.40;;;3.20;;
59770;SDS011;45649;53.014;6.600;2023-05-14T14:06:53;5.43;;;3.47;;
59770;SDS011;45649;53.014;6.600;2023-05-14T14:09:19;3.70;;;3.30;;
59770;SDS011;45649;53.014;6.600;2023-05-14T14:11:45;4.40;;;3.40;;
59770;SDS011;45649;53.014;6.600;2023-05-14T14:14:12;5.97;;;3.27;;
59770;SDS011;45649;53.014;6.600;2023-05-14T14:16:38;5.03;;;3.30;;
59770;SDS011;45649;53.014;6.600;2023-05-14T14:19:04;3.23;;;2.97;;
59770;SDS011;45649;53.014;6.600;2023-05-14T14:21:30;4.17;;;3.13;;
59770;SDS011;45649;53.014;6.600;2023-05-14T14:23:56;3.60;;;3.30;;
59770;SDS011;45649;53.014;6.600;2023-05-14T14:26:22;4.30;;;3.20;;
59770;SDS011;45649;53.014;6.600;2023-05-14T14:28:48;4.20;;;3.40;;
59770;SDS011;45649;53.014;6.600;2023-05-14T14:31:15;4.70;;;3.53;;
59770;SDS011;45649;53.014;6.600;2023-05-14T14:33:41;4.03;;;3.30;;
59770;SDS011;45649;53.014;6.600;2023-05-14T14:36:07;4.40;;;3.23;;
59770;SDS011;45649;53.014;6.600;2023-05-14T14:38:34;3.53;;;3.23;;
59770;SDS011;45649;53.014;6.600;2023-05-14T14:41:00;3.30;;;3.00;;
59770;SDS011;45649;53.014;6.600;2023-05-14T14:43:27;3.47;;;3.20;;